Terminal Aerodrome Forecast
Issued by NWS

Home | Current Version | Previous Version | Text Only | Print | Product List | Glossary Off
Versions: 1 2 3 4 5 6 7 8 9 10 11 12 13 14 15 16 17 18 19 20 21

000
FTUS43 KICT 212148 AAA
TAFCNU
TAF AMD
KCNU 212148Z 2122/2218 13007KT 4SM -DZ SCT009 OVC015
     FM220300 17005KT 2SM BR SCT006 OVC009=

USA.gov is the U.S. government's official web portal to all federal, state and local government web resources and services.